createdAt,value
2018-08-11T00:00:12.410Z,18.75
2018-08-11T00:01:12.433Z,18.83
2018-08-11T00:02:12.367Z,18.87
2018-08-11T00:03:12.450Z,18.91
2018-08-11T00:04:12.334Z,18.93
2018-08-11T00:05:12.364Z,18.93
2018-08-11T00:06:12.277Z,19.02
2018-08-11T00:07:12.271Z,19.07
2018-08-11T00:08:12.218Z,19.01
2018-08-11T00:09:12.282Z,19.07
2018-08-11T00:10:12.184Z,19.06
2018-08-11T00:11:13.238Z,18.99
2018-08-11T00:12:12.129Z,19.16
2018-08-11T00:13:12.212Z,19.12
2018-08-11T00:14:12.078Z,19.09
2018-08-11T00:15:14.161Z,19.15
2018-08-11T00:16:12.039Z,19.10
2018-08-11T00:17:12.030Z,19.13
2018-08-11T00:18:11.992Z,19.13
2018-08-11T00:19:12.049Z,19.13
2018-08-11T00:20:11.948Z,19.16
2018-08-11T00:21:11.951Z,19.13
2018-08-11T00:22:11.902Z,19.15
2018-08-11T00:23:11.970Z,19.17
2018-08-11T00:24:11.853Z,19.15
2018-08-11T00:25:11.880Z,19.17
2018-08-11T00:26:11.814Z,19.13
2018-08-11T00:27:12.849Z,19.17
2018-08-11T00:28:11.753Z,19.21
2018-08-11T00:29:11.807Z,19.17
2018-08-11T00:30:11.705Z,19.27
2018-08-11T00:31:11.768Z,19.16
2018-08-11T00:32:11.661Z,19.17
2018-08-11T00:33:11.738Z,19.30
2018-08-11T00:34:11.621Z,19.27
2018-08-11T00:35:11.634Z,19.28
2018-08-11T00:36:11.582Z,19.27
2018-08-11T00:37:12.573Z,19.32
2018-08-11T00:38:11.515Z,19.38
2018-08-11T00:39:11.561Z,19.32
2018-08-11T00:40:11.472Z,19.25
2018-08-11T00:41:11.473Z,19.39
2018-08-11T00:42:11.438Z,19.21
2018-08-11T00:43:11.485Z,19.20
2018-08-11T00:44:11.387Z,19.01
2018-08-11T00:45:12.417Z,18.89
2018-08-11T00:46:11.342Z,18.69
2018-08-11T00:47:11.408Z,18.60
2018-08-11T00:48:11.277Z,18.59
2018-08-11T00:49:11.322Z,18.54
2018-08-11T00:50:11.246Z,18.49
2018-08-11T00:51:11.336Z,18.42
2018-08-11T00:52:11.195Z,18.35
2018-08-11T00:53:11.245Z,18.29
2018-08-11T00:54:11.145Z,18.29
2018-08-11T00:55:11.150Z,18.26
2018-08-11T00:56:11.101Z,18.29
2018-08-11T00:57:11.163Z,18.09
2018-08-11T00:58:11.054Z,18.09
2018-08-11T00:59:11.072Z,18.07
2018-08-11T01:00:11.003Z,18.01
2018-08-11T01:01:11.085Z,17.94
2018-08-11T01:02:10.959Z,17.92
2018-08-11T01:03:12.024Z,17.98
2018-08-11T01:04:10.903Z,17.92
2018-08-11T01:05:10.903Z,17.87
2018-08-11T01:06:10.868Z,17.81
2018-08-11T01:07:10.918Z,17.84
2018-08-11T01:08:10.814Z,17.79
2018-08-11T01:09:10.828Z,17.77
2018-08-11T01:10:10.762Z,17.68
2018-08-11T01:11:10.844Z,17.63
2018-08-11T01:12:10.725Z,17.54
2018-08-11T01:13:10.758Z,17.43
2018-08-11T01:14:10.674Z,17.35
2018-08-11T01:15:12.716Z,17.20
2018-08-11T01:16:10.621Z,17.18
2018-08-11T01:17:10.676Z,17.06
2018-08-11T01:18:10.591Z,16.91
2018-08-11T01:19:10.587Z,16.80
2018-08-11T01:20:10.527Z,16.69
2018-08-11T01:21:10.599Z,16.66
2018-08-11T01:22:10.477Z,16.75
2018-08-11T01:23:10.510Z,16.66
2018-08-11T01:24:10.435Z,16.57
2018-08-11T01:25:10.527Z,16.37
2018-08-11T01:26:10.405Z,16.29
2018-08-11T01:27:10.469Z,16.17
2018-08-11T01:28:10.335Z,16.10
2018-08-11T01:29:10.348Z,15.95
2018-08-11T01:30:10.306Z,15.89
2018-08-11T01:31:10.365Z,15.76
2018-08-11T01:32:10.270Z,15.70
2018-08-11T01:33:10.270Z,15.77
2018-08-11T01:34:10.219Z,15.62
2018-08-11T01:35:10.289Z,15.73
2018-08-11T01:36:10.149Z,15.43
2018-08-11T01:37:10.193Z,15.55
2018-08-11T01:38:10.109Z,15.48
2018-08-11T01:39:10.106Z,15.34
2018-08-11T01:40:10.068Z,15.38
2018-08-11T01:41:10.123Z,15.33
2018-08-11T01:42:10.013Z,15.28
2018-08-11T01:43:10.028Z,15.30
2018-08-11T01:44:09.974Z,15.18
2018-08-11T01:45:10.050Z,15.16
2018-08-11T01:46:09.910Z,15.13
2018-08-11T01:47:09.950Z,15.04
2018-08-11T01:48:09.868Z,15.00
2018-08-11T01:49:09.889Z,14.91
2018-08-11T01:50:09.845Z,14.90
2018-08-11T01:51:09.883Z,14.83
2018-08-11T01:52:09.773Z,14.86
2018-08-11T01:53:09.787Z,14.80
2018-08-11T01:54:09.737Z,14.80
2018-08-11T01:55:09.806Z,14.85
2018-08-11T01:56:09.726Z,14.82
2018-08-11T01:57:09.766Z,14.93
2018-08-11T01:58:09.634Z,14.86
2018-08-11T01:59:21.404Z,14.86
2018-08-11T02:00:09.613Z,14.83
2018-08-11T02:01:09.637Z,14.72
2018-08-11T02:02:09.549Z,14.67
2018-08-11T02:03:10.580Z,14.64
2018-08-11T02:04:09.483Z,14.64
2018-08-11T02:05:09.550Z,14.64
2018-08-11T02:06:09.453Z,14.59
2018-08-11T02:07:09.473Z,14.49
2018-08-11T02:08:09.395Z,14.57
2018-08-11T02:09:09.517Z,14.56
2018-08-11T02:10:09.358Z,14.53
2018-08-11T02:11:11.360Z,14.60
2018-08-11T02:13:17.610Z,14.45
2018-08-11T02:14:17.676Z,14.44
2018-08-11T02:15:17.568Z,14.38
2018-08-11T02:16:17.532Z,14.42
2018-08-11T02:17:17.575Z,14.39
2018-08-11T02:18:18.549Z,14.46
2018-08-11T02:19:17.409Z,14.45
2018-08-11T02:20:17.450Z,14.42
2018-08-11T02:21:17.371Z,14.49
2018-08-11T02:22:17.445Z,14.53
2018-08-11T02:23:17.327Z,14.52
2018-08-11T02:24:17.360Z,14.49
2018-08-11T02:25:17.268Z,14.48
2018-08-11T02:26:19.336Z,14.49
2018-08-11T02:27:17.222Z,14.38
2018-08-11T02:28:18.315Z,14.49
2018-08-11T02:29:17.174Z,14.42
2018-08-11T02:30:18.325Z,14.36
2018-08-11T02:31:17.137Z,14.35
2018-08-11T02:33:57.066Z,14.45
2018-08-11T02:35:03.822Z,14.41
2018-08-11T02:35:56.967Z,14.36
2018-08-11T02:36:56.971Z,14.27
2018-08-11T02:37:56.926Z,14.36
2018-08-11T02:38:56.977Z,14.23
2018-08-11T02:39:56.888Z,14.26
2018-08-11T02:41:01.811Z,14.16
2018-08-11T02:41:56.852Z,14.20
2018-08-11T02:42:57.828Z,14.21
2018-08-11T02:43:56.775Z,14.26
2018-08-11T02:44:56.818Z,14.09
2018-08-11T02:45:56.736Z,14.19
2018-08-11T02:46:56.728Z,14.13
2018-08-11T02:47:56.682Z,14.06
2018-08-11T02:48:56.744Z,13.98
2018-08-11T02:49:56.635Z,14.04
2018-08-11T02:51:02.276Z,13.99
2018-08-11T02:51:56.589Z,13.98
2018-08-11T02:52:58.609Z,13.96
2018-08-11T02:53:56.527Z,13.91
2018-08-11T02:54:56.577Z,13.96
2018-08-11T02:55:56.482Z,13.93
2018-08-11T02:56:56.479Z,13.88
2018-08-11T02:57:56.445Z,13.81
2018-08-11T02:58:56.503Z,13.80
2018-08-11T02:59:56.389Z,13.86
2018-08-11T03:00:58.466Z,13.84
2018-08-11T03:01:56.348Z,13.80
2018-08-11T03:02:57.451Z,13.87
2018-08-11T03:03:56.316Z,13.75
2018-08-11T03:04:56.339Z,13.76
2018-08-11T03:07:05.972Z,13.75
2018-08-11T03:08:05.963Z,13.72
2018-08-11T03:10:44.269Z,13.75
2018-08-11T03:11:44.183Z,13.63
2018-08-11T03:12:45.216Z,13.73
2018-08-11T03:13:44.109Z,13.73
2018-08-11T03:14:44.095Z,13.72
2018-08-11T03:15:44.072Z,13.72
2018-08-11T03:16:45.141Z,13.75
2018-08-11T03:17:44.009Z,13.75
2018-08-11T03:18:46.069Z,13.79
2018-08-11T03:19:43.970Z,13.76
2018-08-11T03:20:44.036Z,13.76
2018-08-11T03:21:43.920Z,13.80
2018-08-11T03:22:44.987Z,13.80
2018-08-11T03:23:43.869Z,13.75
2018-08-11T03:24:49.406Z,13.80
2018-08-11T03:25:43.837Z,13.79
2018-08-11T03:26:43.876Z,13.68
2018-08-11T03:27:43.773Z,13.62
2018-08-11T03:28:43.782Z,13.73
2018-08-11T03:29:43.728Z,13.69
2018-08-11T03:30:43.789Z,13.72
2018-08-11T03:31:43.692Z,13.72
2018-08-11T03:32:49.439Z,13.68
2018-08-11T03:33:43.654Z,13.66
2018-08-11T03:34:43.725Z,13.65
2018-08-11T03:35:43.584Z,13.62
2018-08-11T03:36:43.628Z,13.61
2018-08-11T03:37:43.539Z,13.69
2018-08-11T03:38:43.553Z,13.69
2018-08-11T03:39:43.485Z,13.61
2018-08-11T03:40:49.386Z,13.71
2018-08-11T03:41:43.444Z,13.63
2018-08-11T03:42:43.463Z,13.62
2018-08-11T03:46:35.758Z,13.54
2018-08-11T03:47:36.758Z,13.54
2018-08-11T03:48:35.645Z,13.54
2018-08-11T03:49:35.658Z,13.53
2018-08-11T03:50:35.594Z,13.54
2018-08-11T03:51:37.573Z,13.47
2018-08-11T03:52:35.550Z,13.46
2018-08-11T03:53:35.540Z,13.50
2018-08-11T03:54:35.489Z,13.50
2018-08-11T03:55:35.558Z,13.47
2018-08-11T03:56:35.443Z,13.39
2018-08-11T03:58:24.000Z,13.51
2018-08-11T03:59:28.624Z,13.47
2018-08-11T04:00:23.927Z,13.47
2018-08-11T04:01:23.937Z,13.48
2018-08-11T04:02:23.889Z,13.48
2018-08-11T04:03:24.965Z,13.32
2018-08-11T04:04:23.823Z,13.50
2018-08-11T04:05:24.877Z,13.38
2018-08-11T04:06:23.794Z,13.35
2018-08-11T04:07:25.928Z,13.39
2018-08-11T04:08:23.752Z,13.31
2018-08-11T04:09:24.811Z,13.38
2018-08-11T04:10:23.699Z,13.38
2018-08-11T04:11:24.726Z,13.39
2018-08-11T04:12:23.655Z,13.36
2018-08-11T05:00:48.192Z,13.65
2018-08-11T05:01:23.924Z,13.69
2018-08-11T05:02:23.908Z,13.65
2018-08-11T05:03:23.915Z,13.83
2018-08-11T05:04:23.867Z,13.88
2018-08-11T05:05:23.932Z,13.91
2018-08-11T05:06:23.802Z,13.87
2018-08-11T05:07:23.859Z,13.93
2018-08-11T05:08:23.760Z,13.93
2018-08-11T05:09:23.779Z,13.81
2018-08-11T05:10:23.719Z,13.87
2018-08-11T05:11:25.720Z,13.83
2018-08-11T05:19:45.648Z,14.08
2018-08-11T05:20:45.633Z,14.12
2018-08-11T05:21:45.535Z,14.16
2018-08-11T05:22:46.606Z,14.20
2018-08-11T05:23:45.515Z,14.23
2018-08-11T05:24:45.508Z,14.19
2018-08-11T05:25:45.467Z,14.19
2018-08-11T05:26:52.360Z,14.16
2018-08-11T05:27:45.423Z,14.16
2018-08-11T05:28:46.424Z,14.17
2018-08-11T05:29:45.370Z,14.17
2018-08-11T05:30:45.407Z,14.31
2018-08-11T05:31:45.299Z,14.26
2018-08-11T05:33:01.313Z,14.31
2018-08-11T05:39:43.944Z,14.54
2018-08-11T05:40:42.312Z,14.66
2018-08-11T05:41:42.278Z,14.53
2018-08-11T05:42:42.305Z,14.64
2018-08-11T05:43:42.197Z,14.66
2018-08-11T05:44:42.233Z,14.66
2018-08-11T05:45:42.168Z,14.69
2018-08-11T05:46:42.233Z,14.67
2018-08-11T05:47:42.138Z,14.71
2018-08-11T05:48:42.162Z,14.66
2018-08-11T05:49:42.054Z,14.72
2018-08-11T05:50:42.139Z,14.80
2018-08-11T05:51:42.001Z,14.95
2018-08-11T05:52:44.103Z,14.94
2018-08-11T05:53:41.967Z,14.94
2018-08-11T05:54:41.972Z,15.01
2018-08-11T05:55:41.946Z,15.04
2018-08-11T05:56:41.892Z,15.07
2018-08-11T05:59:06.247Z,14.90
2018-08-11T06:00:06.254Z,14.90
2018-08-11T06:02:31.459Z,14.82
2018-08-11T06:03:31.474Z,14.83
2018-08-11T06:04:31.415Z,14.80
2018-08-11T06:05:31.380Z,14.78
2018-08-11T06:06:31.351Z,14.83
2018-08-11T06:07:31.399Z,14.69
2018-08-11T06:08:31.288Z,14.80
2018-08-11T06:09:31.296Z,14.86
2018-08-11T06:10:31.248Z,14.78
2018-08-11T06:11:31.322Z,14.82
2018-08-11T06:12:31.189Z,14.80
2018-08-11T06:13:31.231Z,14.93
2018-08-11T06:14:31.135Z,14.86
2018-08-11T06:15:32.159Z,15.09
2018-08-11T06:16:31.108Z,15.01
2018-08-11T06:17:31.148Z,15.03
2018-08-11T06:18:31.047Z,14.95
2018-08-11T06:19:31.165Z,14.90
2018-08-11T06:20:31.004Z,14.95
2018-08-11T06:21:31.087Z,15.00
2018-08-11T06:22:30.952Z,15.04
2018-08-11T06:23:30.985Z,15.04
2018-08-11T06:24:30.903Z,15.15
2018-08-11T06:25:31.924Z,15.09
2018-08-11T06:26:30.864Z,15.25
2018-08-11T06:27:30.906Z,15.23
2018-08-11T06:28:30.806Z,15.34
2018-08-11T06:29:30.823Z,15.48
2018-08-11T06:30:30.760Z,15.55
2018-08-11T06:31:31.804Z,15.66
2018-08-11T06:32:30.712Z,15.67
2018-08-11T06:34:38.830Z,15.66
2018-08-11T06:35:38.791Z,15.71
2018-08-11T06:36:39.766Z,15.77
2018-08-11T06:37:38.729Z,15.84
2018-08-11T06:38:38.765Z,15.71
2018-08-11T06:39:38.700Z,15.73
2018-08-11T06:40:38.804Z,15.73
2018-08-11T06:41:38.640Z,15.78
2018-08-11T06:42:39.714Z,15.73
2018-08-11T06:43:38.588Z,15.76
2018-08-11T06:44:39.615Z,15.73
2018-08-11T06:45:38.540Z,15.80
2018-08-11T06:46:39.667Z,15.76
2018-08-11T06:47:38.498Z,15.81
2018-08-11T06:48:38.525Z,15.77
2018-08-11T06:49:38.443Z,15.68
2018-08-11T06:50:38.523Z,15.85
2018-08-11T06:51:38.397Z,15.77
2018-08-11T06:52:38.441Z,15.74
2018-08-11T06:53:38.351Z,15.81
2018-08-11T06:54:38.354Z,15.71
2018-08-11T06:55:38.378Z,15.67
2018-08-11T06:56:38.355Z,15.55
2018-08-11T06:57:38.252Z,15.55
2018-08-11T06:58:38.265Z,15.67
2018-08-11T06:59:38.202Z,15.71
2018-08-11T07:00:39.224Z,15.78
2018-08-11T07:01:38.162Z,15.98
2018-08-11T07:02:38.205Z,16.11
2018-08-11T07:03:38.107Z,16.11
2018-08-11T07:04:38.099Z,16.18
2018-08-11T07:05:38.068Z,16.07
2018-08-11T07:06:38.113Z,16.06
2018-08-11T07:07:38.125Z,16.01
2018-08-11T07:08:37.988Z,15.92
2018-08-11T07:09:38.077Z,15.95
2018-08-11T07:10:37.986Z,15.77
2018-08-11T07:11:38.010Z,15.81
2018-08-11T07:12:37.898Z,15.91
2018-08-11T07:13:37.957Z,15.88
2018-08-11T07:14:37.859Z,15.92
2018-08-11T07:15:37.871Z,16.01
2018-08-11T07:16:37.818Z,15.96
2018-08-11T07:17:38.024Z,16.03
2018-08-11T07:18:37.761Z,16.06
2018-08-11T07:19:37.857Z,16.04
2018-08-11T07:20:37.689Z,16.16
2018-08-11T07:21:37.754Z,16.07
2018-08-11T07:22:37.651Z,15.99
2018-08-11T07:23:37.629Z,16.08
2018-08-11T07:24:37.598Z,16.07
2018-08-11T07:25:37.748Z,16.04
2018-08-11T07:26:37.556Z,16.01
2018-08-11T07:27:37.639Z,16.01
2018-08-11T07:28:37.508Z,16.08
2018-08-11T07:29:37.554Z,16.13
2018-08-11T07:30:37.465Z,16.32
2018-08-11T07:31:37.455Z,16.27
2018-08-11T07:32:37.424Z,16.33
2018-08-11T07:33:37.671Z,16.30
2018-08-11T07:34:37.366Z,16.37
2018-08-11T07:35:37.446Z,16.32
2018-08-11T07:36:37.416Z,16.37
2018-08-11T07:37:37.451Z,16.40
2018-08-11T07:38:37.275Z,16.41
2018-08-11T07:39:37.331Z,16.50
2018-08-11T07:40:37.227Z,16.52
2018-08-11T07:41:37.215Z,16.59
2018-08-11T07:42:37.175Z,16.54
2018-08-11T07:43:37.233Z,16.59
2018-08-11T07:44:37.125Z,16.62
2018-08-11T07:45:37.138Z,16.70
2018-08-11T07:46:37.070Z,16.65
2018-08-11T07:47:37.206Z,16.59
2018-08-11T07:48:37.031Z,16.78
2018-08-11T07:49:37.001Z,16.80
2018-08-11T07:50:36.971Z,16.91
2018-08-11T07:51:37.017Z,16.98
2018-08-11T07:52:36.938Z,17.02
2018-08-11T07:53:37.024Z,17.03
2018-08-11T07:54:36.876Z,17.06
2018-08-11T07:55:36.913Z,17.06
2018-08-11T07:56:36.826Z,17.09
2018-08-11T07:57:36.906Z,17.12
2018-08-11T07:58:36.795Z,17.17
2018-08-11T07:59:36.839Z,17.12
2018-08-11T08:00:36.733Z,17.09
2018-08-11T08:01:36.713Z,17.21
2018-08-11T08:02:36.711Z,17.33
2018-08-11T08:03:36.680Z,17.38
2018-08-11T08:04:36.754Z,17.35
2018-08-11T08:05:36.628Z,17.35
2018-08-11T08:07:23.028Z,17.47
2018-08-11T08:08:23.079Z,17.60
2018-08-11T08:09:22.972Z,17.57
2018-08-11T08:10:22.943Z,17.54
2018-08-11T08:11:22.978Z,17.70
2018-08-11T08:12:22.911Z,17.70
2018-08-11T08:13:22.872Z,17.80
2018-08-11T08:14:22.852Z,17.76
2018-08-11T08:15:22.909Z,17.81
2018-08-11T08:16:22.817Z,17.83
2018-08-11T08:17:22.808Z,17.96
2018-08-11T08:18:22.766Z,17.87
2018-08-11T08:19:23.851Z,18.02
2018-08-11T08:20:22.714Z,17.96
2018-08-11T08:21:22.733Z,18.19
2018-08-11T08:22:22.693Z,18.16
2018-08-11T08:23:22.756Z,18.28
2018-08-11T08:24:22.621Z,18.31
2018-08-11T08:25:22.810Z,18.51
2018-08-11T08:26:22.912Z,18.60
2018-08-11T08:27:22.774Z,18.60
2018-08-11T08:28:22.933Z,18.54
2018-08-11T08:29:22.635Z,18.56
2018-08-11T08:30:22.468Z,18.44
2018-08-11T08:31:22.435Z,18.49
2018-08-11T08:32:22.546Z,18.36
2018-08-11T08:33:22.393Z,18.38
2018-08-11T08:34:22.481Z,18.25
2018-08-11T08:35:22.357Z,18.34
2018-08-11T08:36:23.385Z,18.21
2018-08-11T08:37:22.302Z,18.28
2018-08-11T08:38:22.387Z,18.19
2018-08-11T08:39:22.261Z,18.31
2018-08-11T08:40:22.391Z,18.47
2018-08-11T08:41:22.205Z,18.44
2018-08-11T08:42:22.304Z,18.49
2018-08-11T08:43:22.163Z,18.53
2018-08-11T08:44:22.212Z,18.44
2018-08-11T08:45:22.118Z,18.39
2018-08-11T08:46:22.223Z,18.54
2018-08-11T08:47:22.080Z,18.53
2018-08-11T08:48:22.134Z,18.51
2018-08-11T08:49:22.023Z,18.53
2018-08-11T08:50:22.176Z,18.56
2018-08-11T08:51:21.965Z,18.71
2018-08-11T08:52:22.070Z,18.76
2018-08-11T08:53:21.942Z,18.68
2018-08-11T08:54:21.975Z,18.83
2018-08-11T08:55:21.865Z,18.82
2018-08-11T08:56:21.985Z,18.96
2018-08-11T08:57:21.828Z,18.96
2018-08-11T08:58:21.896Z,19.20
2018-08-11T08:59:21.776Z,19.13
2018-08-11T09:00:21.908Z,19.21
2018-08-11T09:01:21.727Z,19.27
2018-08-11T09:02:21.826Z,19.16
2018-08-11T09:03:21.677Z,19.10
2018-08-11T09:04:21.741Z,19.12
2018-08-11T09:06:07.784Z,18.79
2018-08-11T09:07:07.838Z,18.75
2018-08-11T09:08:07.731Z,18.53
2018-08-11T09:09:07.841Z,18.32
2018-08-11T09:10:07.684Z,18.23
2018-08-11T09:11:07.788Z,18.36
2018-08-11T09:12:07.674Z,18.59
2018-08-11T09:13:07.705Z,18.69
2018-08-11T09:14:07.588Z,18.84
2018-08-11T09:15:07.621Z,19.07
2018-08-11T09:16:07.537Z,19.27
2018-08-11T09:17:07.567Z,19.50
2018-08-11T09:18:07.493Z,19.70
2018-08-11T09:19:07.550Z,19.78
2018-08-11T09:20:07.455Z,19.79
2018-08-11T09:21:07.454Z,19.68
2018-08-11T09:22:07.410Z,19.61
2018-08-11T09:23:07.483Z,19.52
2018-08-11T09:24:07.375Z,19.64
2018-08-11T09:25:07.388Z,19.45
2018-08-11T09:26:07.301Z,19.50
2018-08-11T09:27:07.384Z,19.62
2018-08-11T09:28:07.255Z,19.60
2018-08-11T09:29:07.331Z,19.61
2018-08-11T09:30:07.226Z,19.85
2018-08-11T09:31:07.210Z,19.86
2018-08-11T09:32:07.156Z,19.92
2018-08-11T09:33:07.222Z,19.87
2018-08-11T09:34:07.113Z,20.02
2018-08-11T09:35:07.134Z,20.19
2018-08-11T09:36:07.073Z,20.19
2018-08-11T09:37:07.145Z,20.41
2018-08-11T09:38:07.020Z,20.56
2018-08-11T09:39:07.057Z,20.72
2018-08-11T09:40:06.976Z,20.75
2018-08-11T09:41:06.968Z,20.90
2018-08-11T09:42:06.944Z,21.09
2018-08-11T09:43:06.976Z,20.91
2018-08-11T09:44:06.922Z,20.69
2018-08-11T09:45:06.908Z,20.58
2018-08-11T09:46:06.852Z,20.25
2018-08-11T09:47:06.905Z,20.02
2018-08-11T09:48:06.795Z,19.85
2018-08-11T09:49:06.756Z,19.65
2018-08-11T09:50:06.820Z,19.35
2018-08-11T09:51:06.719Z,19.47
2018-08-11T09:52:06.716Z,19.61
2018-08-11T09:53:06.729Z,19.64
2018-08-11T09:54:06.648Z,19.72
2018-08-11T09:55:06.642Z,19.97
2018-08-11T09:56:06.639Z,19.97
2018-08-11T09:57:06.620Z,20.13
2018-08-11T09:58:06.662Z,20.15
2018-08-11T09:59:06.660Z,20.13
2018-08-11T10:00:07.594Z,20.13
2018-08-11T10:01:06.478Z,20.33
2018-08-11T10:02:06.573Z,20.50
2018-08-11T10:03:06.426Z,20.35
2018-08-11T10:04:06.415Z,20.50
2018-08-11T10:05:06.445Z,20.46
2018-08-11T10:06:07.439Z,20.41
2018-08-11T10:07:06.345Z,20.42
2018-08-11T10:08:06.423Z,20.69
2018-08-11T10:09:06.292Z,20.72
2018-08-11T10:10:06.331Z,20.60
2018-08-11T10:11:06.247Z,20.61
2018-08-11T10:12:06.238Z,20.54
2018-08-11T10:13:06.238Z,20.56
2018-08-11T10:14:06.257Z,20.79
2018-08-11T10:15:06.170Z,20.88
2018-08-11T10:16:06.161Z,21.28
2018-08-11T10:17:06.105Z,21.49
2018-08-11T10:18:06.181Z,21.56
2018-08-11T10:19:06.051Z,21.75
2018-08-11T10:20:06.089Z,21.77
2018-08-11T10:21:06.007Z,21.71
2018-08-11T10:22:06.102Z,21.42
2018-08-11T10:23:05.957Z,21.15
2018-08-11T10:24:05.944Z,20.94
2018-08-11T10:25:06.014Z,20.71
2018-08-11T10:26:05.908Z,20.82
2018-08-11T10:27:05.934Z,20.81
2018-08-11T10:28:05.858Z,21.03
2018-08-11T10:29:05.836Z,21.11
2018-08-11T10:30:05.797Z,20.94
2018-08-11T10:31:06.880Z,20.71
2018-08-11T10:32:05.750Z,20.60
2018-08-11T10:33:05.759Z,20.66
2018-08-11T10:34:05.701Z,20.54
2018-08-11T10:35:05.782Z,20.48
2018-08-11T10:36:05.655Z,20.61
2018-08-11T10:37:05.730Z,20.54
2018-08-11T10:38:05.612Z,20.71
2018-08-11T10:39:05.590Z,20.71
2018-08-11T10:40:05.589Z,20.75
2018-08-11T10:41:05.627Z,20.76
2018-08-11T10:42:05.548Z,20.68
2018-08-11T10:43:05.491Z,20.66
2018-08-11T10:44:05.525Z,20.46
2018-08-11T10:45:05.468Z,20.42
2018-08-11T10:46:05.567Z,20.33
2018-08-11T10:47:05.492Z,20.20
2018-08-11T10:48:05.457Z,20.30
2018-08-11T10:49:05.355Z,20.33
2018-08-11T10:50:05.371Z,20.37
2018-08-11T10:51:05.313Z,20.38
2018-08-11T10:52:05.391Z,20.54
2018-08-11T10:53:05.270Z,20.71
2018-08-11T10:54:05.248Z,20.75
2018-08-11T10:55:05.219Z,20.88
2018-08-11T10:56:06.378Z,20.88
2018-08-11T10:57:05.170Z,21.08
2018-08-11T10:58:05.288Z,21.21
2018-08-11T10:59:05.125Z,21.53
2018-08-11T11:00:05.119Z,21.64
2018-08-11T11:01:05.088Z,21.48
2018-08-11T11:02:05.106Z,21.43
2018-08-11T11:03:05.145Z,21.46
2018-08-11T11:04:05.019Z,21.53
2018-08-11T11:05:05.060Z,21.51
2018-08-11T11:06:04.970Z,21.42
2018-08-11T11:07:05.059Z,21.53
2018-08-11T11:08:04.912Z,21.61
2018-08-11T11:09:04.975Z,21.56
2018-08-11T11:10:04.874Z,21.45
2018-08-11T11:11:04.843Z,21.45
2018-08-11T11:12:04.978Z,21.53
2018-08-11T11:13:04.811Z,21.42
2018-08-11T11:14:04.948Z,21.42
2018-08-11T11:15:04.747Z,21.38
2018-08-11T11:16:04.890Z,21.19
2018-08-11T11:17:04.717Z,21.26
2018-08-11T11:18:04.684Z,21.18
2018-08-11T11:19:04.728Z,21.15
2018-08-11T11:20:04.629Z,21.16
2018-08-11T11:21:04.636Z,21.30
2018-08-11T11:22:04.598Z,21.26
2018-08-11T11:23:04.661Z,21.48
2018-08-11T11:24:04.560Z,21.56
2018-08-11T11:25:04.761Z,21.59
2018-08-11T11:26:04.488Z,21.67
2018-08-11T11:27:04.572Z,21.74
2018-08-11T11:28:04.451Z,21.67
2018-08-11T11:29:04.489Z,21.64
2018-08-11T11:30:04.400Z,21.63
2018-08-11T11:31:04.401Z,21.63
2018-08-11T11:32:04.365Z,21.51
2018-08-11T11:33:04.425Z,21.55
2018-08-11T11:34:04.310Z,21.64
2018-08-11T11:35:04.317Z,21.70
2018-08-11T11:36:04.261Z,21.85
2018-08-11T11:37:04.340Z,21.77
2018-08-11T11:38:04.207Z,21.81
2018-08-11T11:39:04.253Z,21.85
2018-08-11T11:40:04.164Z,21.81
2018-08-11T11:41:04.220Z,22.06
2018-08-11T11:42:04.124Z,22.08
2018-08-11T11:43:04.166Z,22.26
2018-08-11T11:44:04.082Z,22.31
2018-08-11T11:45:04.076Z,22.42
2018-08-11T11:46:04.035Z,22.45
2018-08-11T11:47:04.105Z,22.33
2018-08-11T11:48:03.982Z,22.33
2018-08-11T11:49:03.998Z,22.14
2018-08-11T11:50:03.944Z,22.24
2018-08-11T11:51:04.013Z,21.94
2018-08-11T11:52:03.882Z,21.77
2018-08-11T11:53:03.884Z,21.66
2018-08-11T11:54:03.957Z,21.58
2018-08-11T11:55:03.892Z,21.53
2018-08-11T11:56:50.019Z,21.61
2018-08-11T11:57:50.032Z,21.64
2018-08-11T11:58:49.943Z,21.74
2018-08-11T11:59:49.997Z,21.66
2018-08-11T12:00:49.905Z,21.59
2018-08-11T12:01:49.954Z,21.66
2018-08-11T12:02:49.847Z,21.61
2018-08-11T12:03:49.871Z,21.36
2018-08-11T12:04:49.811Z,21.26
2018-08-11T12:05:49.936Z,21.22
2018-08-11T12:06:49.770Z,21.36
2018-08-11T12:07:49.789Z,21.61
2018-08-11T12:08:49.722Z,21.70
2018-08-11T12:09:49.700Z,22.11
2018-08-11T12:10:49.660Z,22.31
2018-08-11T12:11:49.712Z,22.42
2018-08-11T12:12:49.620Z,22.49
2018-08-11T12:13:49.623Z,22.41
2018-08-11T12:14:49.575Z,22.46
2018-08-11T12:15:49.633Z,22.54
2018-08-11T12:16:49.518Z,22.82
2018-08-11T12:17:49.547Z,23.01
2018-08-11T12:18:49.480Z,23.22
2018-08-11T12:19:49.564Z,23.26
2018-08-11T12:20:49.428Z,23.18
2018-08-11T12:21:51.529Z,23.06
2018-08-11T12:22:49.379Z,22.89
2018-08-11T12:23:49.394Z,22.88
2018-08-11T12:24:49.367Z,22.59
2018-08-11T12:25:49.403Z,22.51
2018-08-11T12:26:49.308Z,22.52
2018-08-11T12:27:49.380Z,22.46
2018-08-11T12:28:49.244Z,22.54
2018-08-11T12:29:49.317Z,22.59
2018-08-11T12:31:35.404Z,22.60
2018-08-11T12:32:35.401Z,22.46
2018-08-11T12:33:35.328Z,22.46
2018-08-11T12:34:35.326Z,22.45
2018-08-11T12:35:35.291Z,22.20
2018-08-11T12:36:35.326Z,22.12
2018-08-11T12:37:35.241Z,21.90
2018-08-11T12:38:35.247Z,21.86
2018-08-11T12:39:35.199Z,21.81
2018-08-11T12:40:35.276Z,22.05
2018-08-11T12:41:35.131Z,22.08
2018-08-11T12:42:35.161Z,21.82
2018-08-11T12:43:35.085Z,21.71
2018-08-11T12:44:35.095Z,21.90
2018-08-11T12:45:35.079Z,22.15
2018-08-11T12:46:35.085Z,22.11
2018-08-11T12:47:34.997Z,22.08
2018-08-11T12:48:35.013Z,22.14
2018-08-11T12:49:34.940Z,22.17
2018-08-11T12:50:35.011Z,22.17
2018-08-11T12:51:34.908Z,22.33
2018-08-11T12:52:34.928Z,22.42
2018-08-11T12:53:34.868Z,22.59
2018-08-11T12:54:34.927Z,22.63
2018-08-11T12:55:34.812Z,22.70
2018-08-11T12:56:34.843Z,22.70
2018-08-11T12:57:34.769Z,22.74
2018-08-11T12:58:34.765Z,22.63
2018-08-11T12:59:34.736Z,22.57
2018-08-11T13:00:34.771Z,22.45
2018-08-11T13:01:34.711Z,22.33
2018-08-11T13:02:34.683Z,22.12
2018-08-11T13:03:34.642Z,22.15
2018-08-11T13:04:34.693Z,22.23
2018-08-11T13:05:34.577Z,22.08
2018-08-11T13:06:34.608Z,22.11
2018-08-11T13:07:34.538Z,22.31
2018-08-11T13:08:34.620Z,22.49
2018-08-11T13:09:34.503Z,22.48
2018-08-11T13:10:34.533Z,22.48
2018-08-11T13:11:34.440Z,22.39
2018-08-11T13:12:34.441Z,22.21
2018-08-11T13:13:34.394Z,22.19
2018-08-11T13:14:34.474Z,22.17
2018-08-11T13:15:34.348Z,22.20
2018-08-11T13:16:34.357Z,22.31
2018-08-11T13:17:34.301Z,22.33
2018-08-11T13:18:34.385Z,22.39
2018-08-11T13:19:34.262Z,22.52
2018-08-11T13:20:34.324Z,22.69
2018-08-11T13:21:34.220Z,22.91
2018-08-11T13:22:34.308Z,22.91
2018-08-11T13:23:34.160Z,22.89
2018-08-11T13:24:34.223Z,22.88
2018-08-11T13:26:20.398Z,23.31
2018-08-11T13:27:20.415Z,23.22
2018-08-11T13:28:20.317Z,23.34
2018-08-11T13:29:20.312Z,23.50
2018-08-11T13:30:20.270Z,23.56
2018-08-11T13:31:20.322Z,23.68
2018-08-11T13:32:20.225Z,23.75
2018-08-11T13:33:20.255Z,23.90
2018-08-11T13:34:20.173Z,24.05
2018-08-11T13:35:20.285Z,24.05
2018-08-11T13:36:20.135Z,24.19
2018-08-11T13:37:20.157Z,24.16
2018-08-11T13:38:20.086Z,24.16
2018-08-11T13:39:20.178Z,24.26
2018-08-11T13:40:20.044Z,24.19
2018-08-11T13:41:20.077Z,24.02
2018-08-11T13:42:20.007Z,24.09
2018-08-11T13:43:19.987Z,24.11
2018-08-11T13:44:19.962Z,24.08
2018-08-11T13:45:20.011Z,23.86
2018-08-11T13:46:19.914Z,23.97
2018-08-11T13:47:19.912Z,24.11
2018-08-11T13:48:19.852Z,24.06
2018-08-11T13:49:19.930Z,24.12
2018-08-11T13:50:19.809Z,23.99
2018-08-11T13:51:19.838Z,23.90
2018-08-11T13:52:19.790Z,23.79
2018-08-11T13:53:19.761Z,23.77
2018-08-11T13:54:19.733Z,23.77
2018-08-11T13:55:19.766Z,23.59
2018-08-11T13:56:19.669Z,23.52
2018-08-11T13:57:19.642Z,23.38
2018-08-11T13:58:19.618Z,23.45
2018-08-11T13:59:19.750Z,23.38
2018-08-11T14:00:19.574Z,23.35
2018-08-11T14:01:20.668Z,23.34
2018-08-11T14:02:19.533Z,23.35
2018-08-11T14:03:19.648Z,23.26
2018-08-11T14:04:19.479Z,23.11
2018-08-11T14:05:19.558Z,22.91
2018-08-11T14:06:19.427Z,22.67
2018-08-11T14:07:19.477Z,22.46
2018-08-11T14:08:19.405Z,22.51
2018-08-11T14:09:19.484Z,22.44